sensor_id;sensor_type;location;lat;lon;timestamp;temperature;humidity
38209;DHT22;24016;52.102;11.584;2022-09-17T00:00:37;11.00;99.90
38209;DHT22;24016;52.102;11.584;2022-09-17T00:03:03;10.90;99.90
38209;DHT22;24016;52.102;11.584;2022-09-17T00:05:29;10.90;99.90
38209;DHT22;24016;52.102;11.584;2022-09-17T00:07:54;10.90;99.90
38209;DHT22;24016;52.102;11.584;2022-09-17T00:10:20;10.90;99.90
38209;DHT22;24016;52.102;11.584;2022-09-17T00:12:47;10.90;99.90
38209;DHT22;24016;52.102;11.584;2022-09-17T00:15:13;10.90;99.90
38209;DHT22;24016;52.102;11.584;2022-09-17T00:17:39;10.80;99.90
38209;DHT22;24016;52.102;11.584;2022-09-17T00:20:06;10.80;99.90
38209;DHT22;24016;52.102;11.584;2022-09-17T00:22:35;10.80;99.90
38209;DHT22;24016;52.102;11.584;2022-09-17T00:25:00;10.80;99.90
38209;DHT22;24016;52.102;11.584;2022-09-17T00:27:26;10.80;99.90
38209;DHT22;24016;52.102;11.584;2022-09-17T00:29:52;10.70;99.90
38209;DHT22;24016;52.102;11.584;2022-09-17T00:32:17;10.70;99.90
38209;DHT22;24016;52.102;11.584;2022-09-17T00:34:42;10.70;99.90
38209;DHT22;24016;52.102;11.584;2022-09-17T00:37:08;10.70;99.90
38209;DHT22;24016;52.102;11.584;2022-09-17T00:39:34;10.70;99.90
38209;DHT22;24016;52.102;11.584;2022-09-17T00:41:59;10.70;99.90
38209;DHT22;24016;52.102;11.584;2022-09-17T00:44:54;10.70;99.90
38209;DHT22;24016;52.102;11.584;2022-09-17T00:47:35;10.70;99.90
38209;DHT22;24016;52.102;11.584;2022-09-17T00:50:14;10.80;99.90
38209;DHT22;24016;52.102;11.584;2022-09-17T00:52:47;10.80;99.90
38209;DHT22;24016;52.102;11.584;2022-09-17T00:55:22;10.80;99.90
38209;DHT22;24016;52.102;11.584;2022-09-17T00:57:51;10.80;99.90
38209;DHT22;24016;52.102;11.584;2022-09-17T01:00:18;10.80;99.90
38209;DHT22;24016;52.102;11.584;2022-09-17T01:02:44;10.80;99.90
38209;DHT22;24016;52.102;11.584;2022-09-17T01:05:11;10.70;99.90
38209;DHT22;24016;52.102;11.584;2022-09-17T01:13:45;10.80;99.90
38209;DHT22;24016;52.102;11.584;2022-09-17T01:21:32;10.70;99.90
38209;DHT22;24016;52.102;11.584;2022-09-17T01:37:36;10.60;99.90
38209;DHT22;24016;52.102;11.584;2022-09-17T01:40:08;10.70;99.90
38209;DHT22;24016;52.102;11.584;2022-09-17T01:42:57;10.70;99.90
38209;DHT22;24016;52.102;11.584;2022-09-17T01:45:49;10.70;99.90
38209;DHT22;24016;52.102;11.584;2022-09-17T01:48:17;10.60;99.90
38209;DHT22;24016;52.102;11.584;2022-09-17T01:51:04;10.60;99.90
38209;DHT22;24016;52.102;11.584;2022-09-17T01:53:45;10.60;99.90
38209;DHT22;24016;52.102;11.584;2022-09-17T01:56:14;10.70;99.90
38209;DHT22;24016;52.102;11.584;2022-09-17T01:58:47;10.70;99.90
38209;DHT22;24016;52.102;11.584;2022-09-17T02:01:16;10.70;99.90
38209;DHT22;24016;52.102;11.584;2022-09-17T02:04:35;10.70;99.90
38209;DHT22;24016;52.102;11.584;2022-09-17T02:06:37;10.70;99.90
38209;DHT22;24016;52.102;11.584;2022-09-17T02:09:17;10.70;99.90
38209;DHT22;24016;52.102;11.584;2022-09-17T02:11:46;10.70;99.90
38209;DHT22;24016;52.102;11.584;2022-09-17T02:14:35;10.70;99.90
38209;DHT22;24016;52.102;11.584;2022-09-17T02:17:13;10.70;99.90
38209;DHT22;24016;52.102;11.584;2022-09-17T02:19:41;10.70;99.90
38209;DHT22;24016;52.102;11.584;2022-09-17T02:24:58;10.70;99.90
38209;DHT22;24016;52.102;11.584;2022-09-17T02:30:13;10.80;99.90
38209;DHT22;24016;52.102;11.584;2022-09-17T02:32:38;10.90;99.90
38209;DHT22;24016;52.102;11.584;2022-09-17T02:35:04;10.90;99.90
38209;DHT22;24016;52.102;11.584;2022-09-17T02:37:30;10.90;99.90
38209;DHT22;24016;52.102;11.584;2022-09-17T02:39:56;10.90;99.90
38209;DHT22;24016;52.102;11.584;2022-09-17T02:42:28;11.00;99.90
38209;DHT22;24016;52.102;11.584;2022-09-17T02:45:15;11.00;99.90
38209;DHT22;24016;52.102;11.584;2022-09-17T02:50:50;10.90;99.90
38209;DHT22;24016;52.102;11.584;2022-09-17T02:56:16;10.90;99.90
38209;DHT22;24016;52.102;11.584;2022-09-17T02:58:46;11.00;99.90
38209;DHT22;24016;52.102;11.584;2022-09-17T03:01:39;11.00;99.90
38209;DHT22;24016;52.102;11.584;2022-09-17T03:04:11;11.00;99.90
38209;DHT22;24016;52.102;11.584;2022-09-17T03:06:39;11.00;99.90
38209;DHT22;24016;52.102;11.584;2022-09-17T03:09:05;11.00;99.90
38209;DHT22;24016;52.102;11.584;2022-09-17T03:11:30;11.00;99.90
38209;DHT22;24016;52.102;11.584;2022-09-17T03:13:56;11.00;99.90
38209;DHT22;24016;52.102;11.584;2022-09-17T03:16:23;11.10;99.90
38209;DHT22;24016;52.102;11.584;2022-09-17T03:18:48;11.00;99.90
38209;DHT22;24016;52.102;11.584;2022-09-17T03:21:14;11.00;99.90
38209;DHT22;24016;52.102;11.584;2022-09-17T03:23:39;11.00;99.90
38209;DHT22;24016;52.102;11.584;2022-09-17T03:26:05;11.00;99.90
38209;DHT22;24016;52.102;11.584;2022-09-17T03:28:31;11.00;99.90
38209;DHT22;24016;52.102;11.584;2022-09-17T03:30:56;10.90;99.90
38209;DHT22;24016;52.102;11.584;2022-09-17T03:33:22;10.90;99.90
38209;DHT22;24016;52.102;11.584;2022-09-17T03:35:48;10.90;99.90
38209;DHT22;24016;52.102;11.584;2022-09-17T03:38:13;10.90;99.90
38209;DHT22;24016;52.102;11.584;2022-09-17T03:40:39;10.90;99.90
38209;DHT22;24016;52.102;11.584;2022-09-17T03:43:05;10.80;99.90
38209;DHT22;24016;52.102;11.584;2022-09-17T03:45:31;10.80;99.90
38209;DHT22;24016;52.102;11.584;2022-09-17T03:47:56;10.80;99.90
38209;DHT22;24016;52.102;11.584;2022-09-17T03:50:22;10.80;99.90
38209;DHT22;24016;52.102;11.584;2022-09-17T03:52:48;10.70;99.90
38209;DHT22;24016;52.102;11.584;2022-09-17T03:55:13;10.70;99.90
38209;DHT22;24016;52.102;11.584;2022-09-17T03:57:40;10.70;99.90
38209;DHT22;24016;52.102;11.584;2022-09-17T04:00:05;10.80;99.90
38209;DHT22;24016;52.102;11.584;2022-09-17T04:02:32;10.70;99.90
38209;DHT22;24016;52.102;11.584;2022-09-17T04:04:57;10.70;99.90
38209;DHT22;24016;52.102;11.584;2022-09-17T04:07:23;10.70;99.90
38209;DHT22;24016;52.102;11.584;2022-09-17T04:09:48;10.70;99.90
38209;DHT22;24016;52.102;11.584;2022-09-17T04:12:14;10.70;99.90
38209;DHT22;24016;52.102;11.584;2022-09-17T04:14:39;10.60;99.90
38209;DHT22;24016;52.102;11.584;2022-09-17T04:17:05;10.70;99.90
38209;DHT22;24016;52.102;11.584;2022-09-17T04:19:30;10.70;99.90
38209;DHT22;24016;52.102;11.584;2022-09-17T04:21:56;10.70;99.90
38209;DHT22;24016;52.102;11.584;2022-09-17T04:24:21;10.70;99.90
38209;DHT22;24016;52.102;11.584;2022-09-17T04:26:47;10.70;99.90
38209;DHT22;24016;52.102;11.584;2022-09-17T04:29:12;10.80;99.90
38209;DHT22;24016;52.102;11.584;2022-09-17T04:31:38;10.80;99.90
38209;DHT22;24016;52.102;11.584;2022-09-17T04:34:04;10.80;99.90
38209;DHT22;24016;52.102;11.584;2022-09-17T04:36:30;10.80;99.90
38209;DHT22;24016;52.102;11.584;2022-09-17T04:38:55;10.80;99.90
38209;DHT22;24016;52.102;11.584;2022-09-17T04:41:21;10.70;99.90
38209;DHT22;24016;52.102;11.584;2022-09-17T04:43:46;10.70;99.90
38209;DHT22;24016;52.102;11.584;2022-09-17T04:46:12;10.70;99.90
38209;DHT22;24016;52.102;11.584;2022-09-17T04:48:38;10.70;99.90
38209;DHT22;24016;52.102;11.584;2022-09-17T04:51:04;10.80;99.90
38209;DHT22;24016;52.102;11.584;2022-09-17T04:53:29;10.80;99.90
38209;DHT22;24016;52.102;11.584;2022-09-17T04:55:55;10.80;99.90
38209;DHT22;24016;52.102;11.584;2022-09-17T04:58:20;10.80;99.90
38209;DHT22;24016;52.102;11.584;2022-09-17T05:00:46;10.70;99.90
38209;DHT22;24016;52.102;11.584;2022-09-17T05:03:12;10.70;99.90
38209;DHT22;24016;52.102;11.584;2022-09-17T05:05:38;10.70;99.90
38209;DHT22;24016;52.102;11.584;2022-09-17T05:08:04;10.70;99.90
38209;DHT22;24016;52.102;11.584;2022-09-17T05:10:29;10.70;99.90
38209;DHT22;24016;52.102;11.584;2022-09-17T05:12:55;10.70;99.90
38209;DHT22;24016;52.102;11.584;2022-09-17T05:15:23;10.70;99.90
38209;DHT22;24016;52.102;11.584;2022-09-17T05:17:48;10.70;99.90
38209;DHT22;24016;52.102;11.584;2022-09-17T05:20:15;10.70;99.90
38209;DHT22;24016;52.102;11.584;2022-09-17T05:22:46;10.70;99.90
38209;DHT22;24016;52.102;11.584;2022-09-17T05:25:13;10.70;99.90
38209;DHT22;24016;52.102;11.584;2022-09-17T05:27:39;10.80;99.90
38209;DHT22;24016;52.102;11.584;2022-09-17T05:30:05;10.80;99.90
38209;DHT22;24016;52.102;11.584;2022-09-17T05:32:32;10.80;99.90
38209;DHT22;24016;52.102;11.584;2022-09-17T05:34:57;10.80;99.90
38209;DHT22;24016;52.102;11.584;2022-09-17T05:37:23;10.80;99.90
38209;DHT22;24016;52.102;11.584;2022-09-17T05:39:48;10.80;99.90
38209;DHT22;24016;52.102;11.584;2022-09-17T05:42:14;10.80;99.90
38209;DHT22;24016;52.102;11.584;2022-09-17T05:44:40;10.80;99.90
38209;DHT22;24016;52.102;11.584;2022-09-17T05:47:05;10.80;99.90
38209;DHT22;24016;52.102;11.584;2022-09-17T05:49:31;10.80;99.90
38209;DHT22;24016;52.102;11.584;2022-09-17T05:51:56;10.80;99.90
38209;DHT22;24016;52.102;11.584;2022-09-17T05:54:22;10.80;99.90
38209;DHT22;24016;52.102;11.584;2022-09-17T05:56:47;10.80;99.90
38209;DHT22;24016;52.102;11.584;2022-09-17T05:59:16;10.80;99.90
38209;DHT22;24016;52.102;11.584;2022-09-17T06:01:42;10.90;99.90
38209;DHT22;24016;52.102;11.584;2022-09-17T06:04:08;10.90;99.90
38209;DHT22;24016;52.102;11.584;2022-09-17T06:06:34;10.90;99.90
38209;DHT22;24016;52.102;11.584;2022-09-17T06:09:01;10.90;99.90
38209;DHT22;24016;52.102;11.584;2022-09-17T06:11:26;10.90;99.90
38209;DHT22;24016;52.102;11.584;2022-09-17T06:13:53;11.00;99.90
38209;DHT22;24016;52.102;11.584;2022-09-17T06:16:20;11.00;99.90
38209;DHT22;24016;52.102;11.584;2022-09-17T06:18:46;11.00;99.90
38209;DHT22;24016;52.102;11.584;2022-09-17T06:21:11;11.00;99.90
38209;DHT22;24016;52.102;11.584;2022-09-17T06:23:37;10.90;99.90
38209;DHT22;24016;52.102;11.584;2022-09-17T06:26:04;10.90;99.90
38209;DHT22;24016;52.102;11.584;2022-09-17T06:28:31;10.90;99.90
38209;DHT22;24016;52.102;11.584;2022-09-17T06:31:01;10.90;99.90
38209;DHT22;24016;52.102;11.584;2022-09-17T06:33:28;10.90;99.90
38209;DHT22;24016;52.102;11.584;2022-09-17T06:35:58;11.00;99.90
38209;DHT22;24016;52.102;11.584;2022-09-17T06:38:26;11.10;99.90
38209;DHT22;24016;52.102;11.584;2022-09-17T06:40:52;11.00;99.90
38209;DHT22;24016;52.102;11.584;2022-09-17T06:43:19;11.00;99.90
38209;DHT22;24016;52.102;11.584;2022-09-17T06:45:53;11.00;99.90
38209;DHT22;24016;52.102;11.584;2022-09-17T06:48:20;10.90;99.90
38209;DHT22;24016;52.102;11.584;2022-09-17T06:50:45;11.00;99.90
38209;DHT22;24016;52.102;11.584;2022-09-17T06:53:11;11.00;99.90
38209;DHT22;24016;52.102;11.584;2022-09-17T06:55:40;10.90;99.90
38209;DHT22;24016;52.102;11.584;2022-09-17T06:58:05;10.90;99.90
38209;DHT22;24016;52.102;11.584;2022-09-17T07:00:31;10.80;99.90
38209;DHT22;24016;52.102;11.584;2022-09-17T07:02:58;10.80;99.90
38209;DHT22;24016;52.102;11.584;2022-09-17T07:05:24;10.80;99.90
38209;DHT22;24016;52.102;11.584;2022-09-17T07:07:50;10.90;99.90
38209;DHT22;24016;52.102;11.584;2022-09-17T07:10:16;10.90;99.90
38209;DHT22;24016;52.102;11.584;2022-09-17T07:12:42;10.90;99.90
38209;DHT22;24016;52.102;11.584;2022-09-17T07:15:08;11.10;99.90
38209;DHT22;24016;52.102;11.584;2022-09-17T07:17:38;11.10;99.90
38209;DHT22;24016;52.102;11.584;2022-09-17T07:20:05;11.10;99.90
38209;DHT22;24016;52.102;11.584;2022-09-17T07:22:32;11.10;99.90
38209;DHT22;24016;52.102;11.584;2022-09-17T07:24:57;11.00;99.90
38209;DHT22;24016;52.102;11.584;2022-09-17T07:27:23;11.10;99.90
38209;DHT22;24016;52.102;11.584;2022-09-17T07:29:51;11.00;99.90
38209;DHT22;24016;52.102;11.584;2022-09-17T07:32:16;11.00;99.90
38209;DHT22;24016;52.102;11.584;2022-09-17T07:34:42;11.00;99.90
38209;DHT22;24016;52.102;11.584;2022-09-17T07:37:07;10.90;99.90
38209;DHT22;24016;52.102;11.584;2022-09-17T07:39:33;10.90;99.90
38209;DHT22;24016;52.102;11.584;2022-09-17T07:41:58;11.00;99.90
38209;DHT22;24016;52.102;11.584;2022-09-17T07:44:24;11.10;99.90
38209;DHT22;24016;52.102;11.584;2022-09-17T07:46:49;11.10;99.90
38209;DHT22;24016;52.102;11.584;2022-09-17T07:49:15;11.20;99.90
38209;DHT22;24016;52.102;11.584;2022-09-17T07:51:41;11.20;99.90
38209;DHT22;24016;52.102;11.584;2022-09-17T07:54:06;11.30;99.90
38209;DHT22;24016;52.102;11.584;2022-09-17T07:56:32;11.30;99.90
38209;DHT22;24016;52.102;11.584;2022-09-17T07:58:57;11.40;99.90
38209;DHT22;24016;52.102;11.584;2022-09-17T08:01:23;11.40;99.90
38209;DHT22;24016;52.102;11.584;2022-09-17T08:03:51;11.40;99.90
38209;DHT22;24016;52.102;11.584;2022-09-17T08:06:19;11.30;99.90
38209;DHT22;24016;52.102;11.584;2022-09-17T08:08:45;11.30;99.90
38209;DHT22;24016;52.102;11.584;2022-09-17T08:11:14;11.30;99.90
38209;DHT22;24016;52.102;11.584;2022-09-17T08:13:41;11.40;99.90
38209;DHT22;24016;52.102;11.584;2022-09-17T08:16:09;11.50;99.90
38209;DHT22;24016;52.102;11.584;2022-09-17T08:18:38;11.60;99.90
38209;DHT22;24016;52.102;11.584;2022-09-17T08:21:05;11.70;99.90
38209;DHT22;24016;52.102;11.584;2022-09-17T08:23:32;11.90;99.90
38209;DHT22;24016;52.102;11.584;2022-09-17T08:25:59;12.00;99.90
38209;DHT22;24016;52.102;11.584;2022-09-17T08:28:26;12.10;99.90
38209;DHT22;24016;52.102;11.584;2022-09-17T08:30:53;12.30;99.90
38209;DHT22;24016;52.102;11.584;2022-09-17T08:33:19;12.40;99.90
38209;DHT22;24016;52.102;11.584;2022-09-17T08:35:55;12.40;99.90
38209;DHT22;24016;52.102;11.584;2022-09-17T08:38:26;12.60;99.90
38209;DHT22;24016;52.102;11.584;2022-09-17T08:43:26;12.80;99.90
38209;DHT22;24016;52.102;11.584;2022-09-17T08:45:54;12.80;99.90
38209;DHT22;24016;52.102;11.584;2022-09-17T08:48:21;12.90;99.90
38209;DHT22;24016;52.102;11.584;2022-09-17T08:50:48;12.80;99.90
38209;DHT22;24016;52.102;11.584;2022-09-17T08:53:21;12.80;99.90
38209;DHT22;24016;52.102;11.584;2022-09-17T08:56:01;12.90;99.90
38209;DHT22;24016;52.102;11.584;2022-09-17T09:06:34;13.30;99.90
38209;DHT22;24016;52.102;11.584;2022-09-17T09:09:09;13.40;99.90
38209;DHT22;24016;52.102;11.584;2022-09-17T09:11:35;13.50;99.90
38209;DHT22;24016;52.102;11.584;2022-09-17T09:14:24;13.60;99.90
38209;DHT22;24016;52.102;11.584;2022-09-17T09:16:53;13.60;99.90
38209;DHT22;24016;52.102;11.584;2022-09-17T09:19:24;13.40;99.90
38209;DHT22;24016;52.102;11.584;2022-09-17T09:22:05;13.30;99.90
38209;DHT22;24016;52.102;11.584;2022-09-17T09:24:42;13.40;99.90
38209;DHT22;24016;52.102;11.584;2022-09-17T09:27:18;13.50;99.90
38209;DHT22;24016;52.102;11.584;2022-09-17T09:32:42;13.40;99.90
38209;DHT22;24016;52.102;11.584;2022-09-17T09:37:51;13.60;99.90
38209;DHT22;24016;52.102;11.584;2022-09-17T09:40:30;14.60;99.90
38209;DHT22;24016;52.102;11.584;2022-09-17T09:43:00;14.60;99.90
38209;DHT22;24016;52.102;11.584;2022-09-17T09:45:43;14.80;99.90
38209;DHT22;24016;52.102;11.584;2022-09-17T09:48:30;15.30;99.90
38209;DHT22;24016;52.102;11.584;2022-09-17T09:51:14;15.60;99.90
38209;DHT22;24016;52.102;11.584;2022-09-17T09:54:23;15.60;99.90
38209;DHT22;24016;52.102;11.584;2022-09-17T09:56:57;14.90;99.90
38209;DHT22;24016;52.102;11.584;2022-09-17T09:59:25;15.00;99.90
38209;DHT22;24016;52.102;11.584;2022-09-17T10:01:51;15.40;99.90
38209;DHT22;24016;52.102;11.584;2022-09-17T10:04:21;15.90;99.90
38209;DHT22;24016;52.102;11.584;2022-09-17T10:06:53;15.60;99.90
38209;DHT22;24016;52.102;11.584;2022-09-17T10:09:20;15.30;99.90
38209;DHT22;24016;52.102;11.584;2022-09-17T10:12:16;14.90;99.90
38209;DHT22;24016;52.102;11.584;2022-09-17T10:14:44;14.70;99.90
38209;DHT22;24016;52.102;11.584;2022-09-17T10:20:07;15.70;99.90
38209;DHT22;24016;52.102;11.584;2022-09-17T10:22:44;15.70;99.90
38209;DHT22;24016;52.102;11.584;2022-09-17T10:25:26;15.80;99.90
38209;DHT22;24016;52.102;11.584;2022-09-17T10:27:52;16.20;99.90
38209;DHT22;24016;52.102;11.584;2022-09-17T10:30:19;16.60;99.90
38209;DHT22;24016;52.102;11.584;2022-09-17T10:33:27;17.00;99.90
38209;DHT22;24016;52.102;11.584;2022-09-17T10:36:03;16.00;99.90
38209;DHT22;24016;52.102;11.584;2022-09-17T10:38:33;16.20;99.90
38209;DHT22;24016;52.102;11.584;2022-09-17T10:41:13;16.30;99.90
38209;DHT22;24016;52.102;11.584;2022-09-17T10:43:40;16.50;99.90
38209;DHT22;24016;52.102;11.584;2022-09-17T10:46:09;16.40;99.90
38209;DHT22;24016;52.102;11.584;2022-09-17T10:48:47;16.70;99.90
38209;DHT22;24016;52.102;11.584;2022-09-17T10:51:21;16.70;99.90
38209;DHT22;24016;52.102;11.584;2022-09-17T10:54:00;15.90;99.90
38209;DHT22;24016;52.102;11.584;2022-09-17T10:56:33;15.90;99.90
38209;DHT22;24016;52.102;11.584;2022-09-17T10:59:27;15.50;99.90
38209;DHT22;24016;52.102;11.584;2022-09-17T11:07:52;14.70;99.90
38209;DHT22;24016;52.102;11.584;2022-09-17T11:10:31;14.10;99.90
38209;DHT22;24016;52.102;11.584;2022-09-17T11:18:35;13.70;99.90
38209;DHT22;24016;52.102;11.584;2022-09-17T11:24:20;14.00;99.90
38209;DHT22;24016;52.102;11.584;2022-09-17T11:32:48;15.50;99.90
38209;DHT22;24016;52.102;11.584;2022-09-17T11:35:26;15.60;99.90
38209;DHT22;24016;52.102;11.584;2022-09-17T11:38:00;16.00;99.90
38209;DHT22;24016;52.102;11.584;2022-09-17T11:40:36;15.80;99.90
38209;DHT22;24016;52.102;11.584;2022-09-17T11:45:40;16.20;99.90
38209;DHT22;24016;52.102;11.584;2022-09-17T11:48:15;16.00;99.90
38209;DHT22;24016;52.102;11.584;2022-09-17T11:51:26;16.60;99.90
38209;DHT22;24016;52.102;11.584;2022-09-17T11:53:50;16.50;99.90
38209;DHT22;24016;52.102;11.584;2022-09-17T11:56:32;16.10;99.90
38209;DHT22;24016;52.102;11.584;2022-09-17T11:59:04;16.60;99.90
38209;DHT22;24016;52.102;11.584;2022-09-17T12:02:19;16.80;99.90
38209;DHT22;24016;52.102;11.584;2022-09-17T12:04:53;17.60;99.90
38209;DHT22;24016;52.102;11.584;2022-09-17T12:07:42;17.50;99.90
38209;DHT22;24016;52.102;11.584;2022-09-17T12:12:42;16.80;99.90
38209;DHT22;24016;52.102;11.584;2022-09-17T12:15:21;16.80;99.90
38209;DHT22;24016;52.102;11.584;2022-09-17T12:20:46;16.50;99.90
38209;DHT22;24016;52.102;11.584;2022-09-17T12:23:15;16.10;99.90
38209;DHT22;24016;52.102;11.584;2022-09-17T12:26:00;15.80;99.90
38209;DHT22;24016;52.102;11.584;2022-09-17T12:28:34;15.40;99.90
38209;DHT22;24016;52.102;11.584;2022-09-17T12:31:52;16.00;99.90
38209;DHT22;24016;52.102;11.584;2022-09-17T12:36:57;17.50;99.00
38209;DHT22;24016;52.102;11.584;2022-09-17T12:48:11;16.10;99.90
38209;DHT22;24016;52.102;11.584;2022-09-17T12:50:53;14.60;99.90
38209;DHT22;24016;52.102;11.584;2022-09-17T12:53:28;15.10;99.90
38209;DHT22;24016;52.102;11.584;2022-09-17T12:56:08;15.40;99.90
38209;DHT22;24016;52.102;11.584;2022-09-17T13:01:59;15.60;99.90
38209;DHT22;24016;52.102;11.584;2022-09-17T13:07:49;15.40;99.90
38209;DHT22;24016;52.102;11.584;2022-09-17T13:10:40;15.40;99.90
38209;DHT22;24016;52.102;11.584;2022-09-17T13:16:44;15.70;99.90
38209;DHT22;24016;52.102;11.584;2022-09-17T13:19:43;15.80;99.90
38209;DHT22;24016;52.102;11.584;2022-09-17T13:22:19;15.50;99.90
38209;DHT22;24016;52.102;11.584;2022-09-17T13:24:59;15.10;99.90
38209;DHT22;24016;52.102;11.584;2022-09-17T13:27:26;14.70;99.90
38209;DHT22;24016;52.102;11.584;2022-09-17T13:29:58;14.60;99.90
38209;DHT22;24016;52.102;11.584;2022-09-17T13:40:23;14.90;99.90
38209;DHT22;24016;52.102;11.584;2022-09-17T13:43:17;14.20;99.90
38209;DHT22;24016;52.102;11.584;2022-09-17T13:48:27;14.10;99.90
38209;DHT22;24016;52.102;11.584;2022-09-17T13:50:54;13.70;99.90
38209;DHT22;24016;52.102;11.584;2022-09-17T13:53:21;13.90;99.90
38209;DHT22;24016;52.102;11.584;2022-09-17T13:55:52;13.70;99.90
38209;DHT22;24016;52.102;11.584;2022-09-17T14:05:53;13.00;99.90
38209;DHT22;24016;52.102;11.584;2022-09-17T14:08:28;12.80;99.90
38209;DHT22;24016;52.102;11.584;2022-09-17T14:10:56;12.70;99.90
38209;DHT22;24016;52.102;11.584;2022-09-17T14:13:37;12.90;99.90
38209;DHT22;24016;52.102;11.584;2022-09-17T14:22:01;12.90;99.90
38209;DHT22;24016;52.102;11.584;2022-09-17T14:32:47;11.50;99.90
38209;DHT22;24016;52.102;11.584;2022-09-17T14:35:22;11.40;99.90
38209;DHT22;24016;52.102;11.584;2022-09-17T14:37:53;11.40;99.90
38209;DHT22;24016;52.102;11.584;2022-09-17T14:40:21;11.30;99.90
38209;DHT22;24016;52.102;11.584;2022-09-17T14:42:51;11.30;99.90
38209;DHT22;24016;52.102;11.584;2022-09-17T14:45:31;11.20;99.90
38209;DHT22;24016;52.102;11.584;2022-09-17T14:48:17;11.10;99.90
38209;DHT22;24016;52.102;11.584;2022-09-17T14:50:44;11.10;99.90
38209;DHT22;24016;52.102;11.584;2022-09-17T14:53:18;10.90;99.90
38209;DHT22;24016;52.102;11.584;2022-09-17T14:55:48;10.90;99.90
38209;DHT22;24016;52.102;11.584;2022-09-17T14:58:33;10.70;99.90
38209;DHT22;24016;52.102;11.584;2022-09-17T15:00:59;10.60;99.90
38209;DHT22;24016;52.102;11.584;2022-09-17T15:03:25;10.50;99.90
38209;DHT22;24016;52.102;11.584;2022-09-17T15:05:50;10.30;99.90
38209;DHT22;24016;52.102;11.584;2022-09-17T15:08:25;10.20;99.90
38209;DHT22;24016;52.102;11.584;2022-09-17T15:10:56;10.00;99.90
38209;DHT22;24016;52.102;11.584;2022-09-17T15:13:26;10.00;99.90
38209;DHT22;24016;52.102;11.584;2022-09-17T15:15:59;9.90;99.90
38209;DHT22;24016;52.102;11.584;2022-09-17T15:18:37;9.70;99.90
38209;DHT22;24016;52.102;11.584;2022-09-17T15:21:12;9.60;99.90
38209;DHT22;24016;52.102;11.584;2022-09-17T15:23:41;9.60;99.90
38209;DHT22;24016;52.102;11.584;2022-09-17T15:26:07;9.50;99.90
38209;DHT22;24016;52.102;11.584;2022-09-17T15:28:39;9.50;99.90
38209;DHT22;24016;52.102;11.584;2022-09-17T15:31:14;9.50;99.90
38209;DHT22;24016;52.102;11.584;2022-09-17T15:33:40;9.60;99.90
38209;DHT22;24016;52.102;11.584;2022-09-17T15:36:22;9.60;99.90
38209;DHT22;24016;52.102;11.584;2022-09-17T15:38:48;9.70;99.90
38209;DHT22;24016;52.102;11.584;2022-09-17T15:43:44;9.90;99.90
38209;DHT22;24016;52.102;11.584;2022-09-17T15:46:29;9.90;99.90
38209;DHT22;24016;52.102;11.584;2022-09-17T15:49:00;9.90;99.90
38209;DHT22;24016;52.102;11.584;2022-09-17T15:51:30;9.90;99.90
38209;DHT22;24016;52.102;11.584;2022-09-17T15:54:04;9.80;99.90
38209;DHT22;24016;52.102;11.584;2022-09-17T15:56:37;9.80;99.90
38209;DHT22;24016;52.102;11.584;2022-09-17T16:01:49;9.60;99.90
38209;DHT22;24016;52.102;11.584;2022-09-17T16:04:20;9.50;99.90
38209;DHT22;24016;52.102;11.584;2022-09-17T16:06:52;9.50;99.90
38209;DHT22;24016;52.102;11.584;2022-09-17T16:12:06;9.50;99.90
38209;DHT22;24016;52.102;11.584;2022-09-17T16:14:31;9.50;99.90
38209;DHT22;24016;52.102;11.584;2022-09-17T16:16:58;9.50;99.90
38209;DHT22;24016;52.102;11.584;2022-09-17T16:19:24;9.50;99.90
38209;DHT22;24016;52.102;11.584;2022-09-17T16:21:53;9.50;99.90
38209;DHT22;24016;52.102;11.584;2022-09-17T16:24:20;9.50;99.90
38209;DHT22;24016;52.102;11.584;2022-09-17T16:26:45;9.50;99.90
38209;DHT22;24016;52.102;11.584;2022-09-17T16:29:14;9.50;99.90
38209;DHT22;24016;52.102;11.584;2022-09-17T16:31:40;9.60;99.90
38209;DHT22;24016;52.102;11.584;2022-09-17T16:34:06;9.50;99.90
38209;DHT22;24016;52.102;11.584;2022-09-17T16:36:31;9.50;99.90
38209;DHT22;24016;52.102;11.584;2022-09-17T16:38:58;9.60;99.90
38209;DHT22;24016;52.102;11.584;2022-09-17T16:41:23;9.60;99.90
38209;DHT22;24016;52.102;11.584;2022-09-17T16:43:49;9.50;99.90
38209;DHT22;24016;52.102;11.584;2022-09-17T16:46:14;9.50;99.90
38209;DHT22;24016;52.102;11.584;2022-09-17T16:48:40;9.50;99.90
38209;DHT22;24016;52.102;11.584;2022-09-17T16:51:12;9.50;99.90
38209;DHT22;24016;52.102;11.584;2022-09-17T16:53:38;9.40;99.90
38209;DHT22;24016;52.102;11.584;2022-09-17T16:56:09;9.40;99.90
38209;DHT22;24016;52.102;11.584;2022-09-17T16:58:35;9.40;99.90
38209;DHT22;24016;52.102;11.584;2022-09-17T17:01:09;9.40;99.90
38209;DHT22;24016;52.102;11.584;2022-09-17T17:03:34;9.40;99.90
38209;DHT22;24016;52.102;11.584;2022-09-17T17:06:00;9.40;99.90
38209;DHT22;24016;52.102;11.584;2022-09-17T17:08:26;9.30;99.90
38209;DHT22;24016;52.102;11.584;2022-09-17T17:10:51;9.20;99.90
38209;DHT22;24016;52.102;11.584;2022-09-17T17:13:17;9.20;99.90
38209;DHT22;24016;52.102;11.584;2022-09-17T17:15:43;9.20;99.90
38209;DHT22;24016;52.102;11.584;2022-09-17T17:18:08;9.10;99.90
38209;DHT22;24016;52.102;11.584;2022-09-17T17:20:34;9.20;99.90
38209;DHT22;24016;52.102;11.584;2022-09-17T17:23:00;9.20;99.90
38209;DHT22;24016;52.102;11.584;2022-09-17T17:25:26;9.20;99.90
38209;DHT22;24016;52.102;11.584;2022-09-17T17:27:53;9.20;99.90
38209;DHT22;24016;52.102;11.584;2022-09-17T17:30:18;9.20;99.90
38209;DHT22;24016;52.102;11.584;2022-09-17T17:32:48;9.10;99.90
38209;DHT22;24016;52.102;11.584;2022-09-17T17:35:14;9.10;99.90
38209;DHT22;24016;52.102;11.584;2022-09-17T17:37:40;9.20;99.90
38209;DHT22;24016;52.102;11.584;2022-09-17T17:40:06;9.10;99.90
38209;DHT22;24016;52.102;11.584;2022-09-17T17:42:33;9.20;99.90
38209;DHT22;24016;52.102;11.584;2022-09-17T17:45:06;9.20;99.90
38209;DHT22;24016;52.102;11.584;2022-09-17T17:47:32;9.20;99.90
38209;DHT22;24016;52.102;11.584;2022-09-17T17:49:58;9.30;99.90
38209;DHT22;24016;52.102;11.584;2022-09-17T17:52:23;9.30;99.90
38209;DHT22;24016;52.102;11.584;2022-09-17T17:54:49;9.30;99.90
38209;DHT22;24016;52.102;11.584;2022-09-17T17:57:15;9.30;99.90
38209;DHT22;24016;52.102;11.584;2022-09-17T17:59:40;9.30;99.90
38209;DHT22;24016;52.102;11.584;2022-09-17T18:02:06;9.40;99.90